Time;durP1;ratioP1;P1;durP2;ratioP2;P2;SDS_P1;SDS_P2;PMS_P1;PMS_P2;Temp;Humidity;BMP_temperature;BMP_pressure;BME280_temperature;BME280_humidity;BME280_pressure;Samples;Min_cycle;Max_cycle;Signal;HPM_P1;HPM_P2
2021/08/28 00:01:36;;;;;;;32.83;21.00;;;;;;;23.42;78.87;99354.19;5095364;28;20041;-69
2021/08/28 00:04:01;;;;;;;29.80;20.20;;;;;;;23.49;78.78;99338.59;5093802;28;20044;-69
2021/08/28 00:06:27;;;;;;;33.03;20.95;;;;;;;23.51;78.55;99358.88;5093443;28;20083;-68
2021/08/28 00:08:52;;;;;;;29.77;20.55;;;;;;;23.71;77.26;99361.00;5097693;28;20068;-68
2021/08/28 00:11:18;;;;;;;26.33;19.40;;;;;;;23.83;75.87;99356.22;5100271;28;20272;-69
2021/08/28 00:13:43;;;;;;;28.48;19.77;;;;;;;23.77;76.26;99348.34;5098140;28;20039;-69
2021/08/28 00:16:10;;;;;;;31.25;19.50;;;;;;;23.95;75.54;99352.56;5101725;28;20032;-69
2021/08/28 00:18:36;;;;;;;25.88;19.25;;;;;;;24.07;74.91;99354.00;5096565;28;20039;-68
2021/08/28 00:21:02;;;;;;;27.25;19.35;;;;;;;24.12;74.52;99361.34;5093825;28;20028;-69
2021/08/28 00:23:27;;;;;;;27.38;18.15;;;;;;;24.30;73.63;99357.44;5093371;28;20103;-68
2021/08/28 00:25:53;;;;;;;26.13;18.45;;;;;;;24.37;73.38;99364.25;5094625;28;20046;-68
2021/08/28 00:28:18;;;;;;;28.67;19.20;;;;;;;24.24;73.82;99361.97;5096148;28;20032;-69
2021/08/28 00:30:44;;;;;;;26.40;18.75;;;;;;;24.24;73.78;99369.28;5095111;28;20240;-69
2021/08/28 00:33:11;;;;;;;27.77;19.00;;;;;;;24.20;74.05;99369.78;5094080;28;20036;-68
2021/08/28 00:35:36;;;;;;;29.00;18.92;;;;;;;24.11;73.89;99370.53;5091364;28;20091;-69
2021/08/28 00:38:02;;;;;;;29.23;19.15;;;;;;;24.12;74.02;99366.75;5095382;28;20032;-69
2021/08/28 00:40:27;;;;;;;30.42;20.15;;;;;;;24.09;73.90;99372.69;5093637;28;20032;-69
2021/08/28 00:42:53;;;;;;;31.05;20.60;;;;;;;23.81;75.72;99379.19;5093208;28;20040;-68
2021/08/28 00:45:47;;;;;;;28.95;21.60;;;;;;;23.56;77.13;99380.59;5091961;28;20035;-69
2021/08/28 00:48:14;;;;;;;28.23;20.77;;;;;;;23.35;78.24;99375.19;5073136;28;20044;-69
2021/08/28 00:50:42;;;;;;;32.90;22.27;;;;;;;23.36;78.51;99374.13;5094409;28;20031;-69
2021/08/28 00:53:10;;;;;;;33.45;23.30;;;;;;;23.13;79.55;99370.66;5092927;28;20059;-69
2021/08/28 00:55:43;;;;;;;34.22;25.48;;;;;;;23.01;80.50;99379.94;5093179;28;20031;-69
2021/08/28 00:58:09;;;;;;;35.42;24.25;;;;;;;23.02;80.23;99370.78;5091552;28;20100;-68
2021/08/28 01:00:41;;;;;;;40.13;24.98;;;;;;;22.87;81.30;99374.91;5093255;28;20031;-68
2021/08/28 01:03:07;;;;;;;36.72;26.02;;;;;;;22.89;81.18;99377.38;5093083;28;20332;-68
2021/08/28 01:06:05;;;;;;;41.65;27.02;;;;;;;23.29;79.21;99379.72;5094284;28;20095;-68
2021/08/28 01:08:33;;;;;;;38.35;26.70;;;;;;;23.13;80.23;99380.63;5038591;28;20052;-69
2021/08/28 01:11:17;;;;;;;39.50;26.42;;;;;;;23.19;79.60;99380.44;5095937;28;20036;-68
2021/08/28 01:13:46;;;;;;;39.53;25.00;;;;;;;23.17;79.43;99377.19;5095123;28;20028;-68
2021/08/28 01:16:14;;;;;;;38.60;26.08;;;;;;;23.28;78.77;99388.91;5096484;28;20025;-69
2021/08/28 01:18:42;;;;;;;35.60;25.65;;;;;;;23.31;78.23;99385.69;5094474;28;20037;-69
2021/08/28 01:21:16;;;;;;;39.15;25.45;;;;;;;23.34;78.24;99390.59;5096548;28;20229;-68
2021/08/28 01:23:43;;;;;;;36.28;24.42;;;;;;;23.33;78.08;99382.75;5095378;28;20211;-68
2021/08/28 01:26:15;;;;;;;39.80;25.20;;;;;;;23.49;77.36;99385.34;5095288;28;20034;-69
2021/08/28 01:29:06;;;;;;;36.85;24.65;;;;;;;23.59;76.97;99376.56;5094786;28;20028;-69
2021/08/28 01:31:32;;;;;;;38.58;24.25;;;;;;;23.61;76.52;99376.31;5097436;28;20027;-69
2021/08/28 01:33:58;;;;;;;39.15;23.63;;;;;;;23.58;76.10;99374.13;5097001;28;20043;-68
2021/08/28 01:36:25;;;;;;;38.42;23.45;;;;;;;23.59;75.75;99375.75;5097718;28;20024;-69
2021/08/28 01:38:52;;;;;;;38.55;24.67;;;;;;;23.61;75.74;99370.91;5096121;28;20055;-69
2021/08/28 01:41:19;;;;;;;36.33;22.88;;;;;;;23.53;76.09;99375.66;5096781;28;20221;-68
2021/08/28 01:43:44;;;;;;;35.47;23.52;;;;;;;23.60;75.76;99374.66;5097162;28;20044;-69
2021/08/28 01:46:11;;;;;;;34.95;23.70;;;;;;;23.62;75.64;99373.34;5096130;28;20096;-68
2021/08/28 01:48:37;;;;;;;31.48;24.30;;;;;;;23.43;76.59;99374.75;5095093;28;20047;-69
2021/08/28 01:51:03;;;;;;;36.55;23.75;;;;;;;23.34;76.97;99377.09;5096914;28;20249;-68
2021/08/28 01:53:28;;;;;;;36.30;23.25;;;;;;;23.40;76.65;99376.06;5094816;28;20028;-68
2021/08/28 01:55:54;;;;;;;37.45;25.05;;;;;;;23.33;77.04;99380.84;5096295;28;20049;-69
2021/08/28 01:58:20;;;;;;;33.80;24.38;;;;;;;23.07;78.12;99373.53;5095387;28;20028;-69
2021/08/28 02:00:46;;;;;;;37.05;23.88;;;;;;;23.13;78.04;99380.63;5095978;28;20050;-69
2021/08/28 02:03:11;;;;;;;39.63;24.55;;;;;;;23.08;78.37;99383.28;5096737;28;20032;-69
2021/08/28 02:05:43;;;;;;;35.70;24.73;;;;;;;23.17;77.35;99387.16;5094793;28;20039;-68
2021/08/28 02:08:15;;;;;;;37.50;25.70;;;;;;;22.90;78.64;99381.72;5094395;28;20044;-69
2021/08/28 02:10:48;;;;;;;40.25;25.45;;;;;;;22.81;79.18;99391.28;5094904;28;20336;-68
2021/08/28 02:13:31;;;;;;;36.97;25.65;;;;;;;23.00;78.43;99392.63;5096035;28;20322;-69
2021/08/28 02:16:05;;;;;;;39.38;24.42;;;;;;;23.17;77.76;99406.88;5095326;28;20395;-68
2021/08/28 02:18:38;;;;;;;35.53;23.80;;;;;;;23.17;76.14;99396.09;5095984;28;20039;-68
2021/08/28 02:21:06;;;;;;;38.40;25.60;;;;;;;22.81;78.27;99402.91;5095991;28;20233;-68
2021/08/28 02:24:00;;;;;;;42.72;25.30;;;;;;;22.73;79.14;99408.69;5081499;28;20024;-69
2021/08/28 02:26:35;;;;;;;37.45;24.75;;;;;;;22.67;80.12;99412.38;5053992;28;20029;-68
2021/08/28 02:29:03;;;;;;;36.35;24.38;;;;;;;22.73;80.13;99413.28;5093480;28;20036;-69
2021/08/28 02:31:36;;;;;;;38.08;25.30;;;;;;;22.87;79.29;99417.28;5097459;28;20069;-69
2021/08/28 02:34:04;;;;;;;39.92;25.77;;;;;;;23.00;78.04;99416.13;5095225;28;20357;-68
2021/08/28 02:36:30;;;;;;;41.72;27.90;;;;;;;22.84;79.05;99423.19;5095949;28;20291;-69
2021/08/28 02:38:57;;;;;;;39.05;26.00;;;;;;;22.96;78.19;99423.09;5096135;28;20031;-68
2021/08/28 02:41:27;;;;;;;34.08;25.02;;;;;;;22.88;78.46;99425.13;5082392;28;20024;-68
2021/08/28 02:43:55;;;;;;;37.55;25.15;;;;;;;22.68;79.67;99424.81;5102023;28;20115;-68
2021/08/28 02:46:20;;;;;;;38.53;26.08;;;;;;;22.77;79.13;99425.22;5096237;28;20099;-69
2021/08/28 02:48:46;;;;;;;36.40;25.63;;;;;;;22.81;79.49;99418.28;5097076;28;20067;-68
2021/08/28 02:51:12;;;;;;;38.47;24.95;;;;;;;22.90;78.98;99422.22;5095787;28;20355;-69
2021/08/28 02:53:45;;;;;;;38.75;25.08;;;;;;;22.99;78.64;99419.88;5097155;28;20095;-68
2021/08/28 02:56:11;;;;;;;34.88;23.85;;;;;;;22.94;78.71;99426.03;5101505;28;20036;-68
2021/08/28 02:58:37;;;;;;;33.78;23.70;;;;;;;22.98;78.27;99423.66;5101571;28;20195;-69
2021/08/28 03:01:06;;;;;;;36.97;25.15;;;;;;;22.90;78.40;99422.22;5094736;28;20035;-69
2021/08/28 03:03:32;;;;;;;36.63;25.65;;;;;;;22.80;78.80;99405.84;5096507;28;20051;-68
2021/08/28 03:05:58;;;;;;;34.78;24.30;;;;;;;23.06;77.75;99424.03;5097512;28;20392;-68
2021/08/28 03:08:25;;;;;;;38.72;24.45;;;;;;;23.19;76.30;99414.75;5095696;28;20040;-68
2021/08/28 03:10:52;;;;;;;35.33;24.98;;;;;;;23.07;76.47;99427.56;5075328;28;20036;-68
2021/08/28 03:13:19;;;;;;;35.03;24.77;;;;;;;23.02;77.08;99419.38;5095776;28;20333;-68
2021/08/28 03:15:46;;;;;;;30.83;23.08;;;;;;;22.96;77.52;99415.81;5093305;28;20040;-68
2021/08/28 03:18:15;;;;;;;37.22;24.42;;;;;;;23.02;77.49;99424.78;5093272;28;20359;-69
2021/08/28 03:20:46;;;;;;;34.42;24.20;;;;;;;23.05;77.33;99427.81;5096120;28;20020;-68
2021/08/28 03:23:15;;;;;;;37.42;23.58;;;;;;;22.99;76.89;99426.09;5095088;28;20039;-68
2021/08/28 03:25:41;;;;;;;39.60;23.83;;;;;;;22.91;77.74;99427.34;5101067;28;20032;-68
2021/08/28 03:28:09;;;;;;;34.70;22.60;;;;;;;22.90;78.18;99433.00;5098802;28;20032;-68
2021/08/28 03:30:36;;;;;;;34.03;23.88;;;;;;;22.89;78.55;99437.59;5095846;28;20028;-68
2021/08/28 03:33:02;;;;;;;43.38;24.10;;;;;;;22.90;78.75;99430.31;5101103;28;20039;-69
2021/08/28 03:35:29;;;;;;;42.42;25.55;;;;;;;22.87;78.70;99433.47;5099634;28;20028;-68
2021/08/28 03:37:54;;;;;;;42.05;25.15;;;;;;;22.83;79.23;99432.34;5094360;28;20111;-69
2021/08/28 03:40:20;;;;;;;41.30;24.08;;;;;;;22.89;79.26;99434.06;5092189;28;20104;-68
2021/08/28 03:42:45;;;;;;;38.05;24.60;;;;;;;22.84;79.50;99429.38;5094568;28;20078;-69
2021/08/28 03:45:11;;;;;;;35.05;25.33;;;;;;;22.85;79.92;99449.94;5096435;28;20207;-69
2021/08/28 03:47:40;;;;;;;40.83;26.52;;;;;;;22.90;79.84;99439.22;5094799;28;20073;-68
2021/08/28 03:50:06;;;;;;;37.08;26.05;;;;;;;22.90;79.57;99446.50;5094498;28;20035;-68
2021/08/28 03:52:32;;;;;;;44.15;25.67;;;;;;;22.99;79.02;99442.31;5094214;28;20237;-69
2021/08/28 03:54:58;;;;;;;40.22;25.17;;;;;;;22.98;78.88;99450.66;5094718;28;20318;-68
2021/08/28 03:57:23;;;;;;;41.03;26.60;;;;;;;23.00;78.99;99443.13;5095188;28;20028;-68
2021/08/28 03:59:48;;;;;;;40.83;25.73;;;;;;;23.22;77.65;99449.34;5094181;28;20108;-68
2021/08/28 04:02:14;;;;;;;43.80;26.40;;;;;;;23.09;78.16;99460.53;5093813;28;20055;-69
2021/08/28 04:04:39;;;;;;;39.35;25.80;;;;;;;23.18;77.46;99457.13;5095596;28;20234;-68
2021/08/28 04:07:05;;;;;;;43.00;24.33;;;;;;;23.28;76.77;99461.03;5075962;28;20325;-68
2021/08/28 04:09:30;;;;;;;40.50;25.92;;;;;;;23.16;77.06;99464.66;5095376;28;20036;-68
2021/08/28 04:11:56;;;;;;;38.15;26.17;;;;;;;23.15;77.54;99464.94;5095471;28;20046;-68
2021/08/28 04:14:21;;;;;;;41.15;26.33;;;;;;;23.18;77.26;99467.94;5094727;28;20020;-68
2021/08/28 04:16:46;;;;;;;43.67;27.13;;;;;;;23.11;78.37;99474.59;5095352;28;20035;-69
2021/08/28 04:19:12;;;;;;;39.78;26.77;;;;;;;22.96;78.68;99467.09;5093898;28;21093;-69
2021/08/28 04:21:37;;;;;;;46.63;25.73;;;;;;;22.87;78.81;99458.59;5094829;28;20055;-68
2021/08/28 04:24:03;;;;;;;41.13;26.05;;;;;;;23.19;77.64;99460.66;5094214;28;20194;-69
2021/08/28 04:26:28;;;;;;;43.47;26.08;;;;;;;23.17;78.22;99460.09;5095720;28;20209;-68
2021/08/28 04:28:56;;;;;;;40.70;23.83;;;;;;;23.32;77.75;99467.56;5095983;28;20034;-69
2021/08/28 04:31:22;;;;;;;42.08;25.35;;;;;;;23.54;76.94;99463.81;5094424;28;20365;-69
2021/08/28 04:33:48;;;;;;;34.00;24.38;;;;;;;23.44;77.42;99477.16;5093714;28;20039;-69
2021/08/28 04:36:14;;;;;;;35.90;24.60;;;;;;;23.47;76.85;99473.97;5100411;28;20059;-68
2021/08/28 04:38:39;;;;;;;37.75;24.35;;;;;;;23.30;76.95;99478.63;5100473;28;20028;-69
2021/08/28 04:41:04;;;;;;;40.60;23.98;;;;;;;23.29;77.13;99474.28;5094306;28;20035;-68
2021/08/28 04:43:30;;;;;;;37.40;23.25;;;;;;;23.29;76.64;99478.88;5094365;28;20059;-68
2021/08/28 04:45:55;;;;;;;37.42;23.30;;;;;;;23.28;76.33;99453.75;5097732;28;20047;-68
2021/08/28 04:48:21;;;;;;;45.33;23.70;;;;;;;23.34;76.87;99471.66;5098268;28;20032;-69
2021/08/28 04:50:46;;;;;;;42.05;23.85;;;;;;;23.24;77.19;99474.22;5099209;28;20032;-68
2021/08/28 04:53:12;;;;;;;41.33;23.75;;;;;;;23.26;77.61;99474.78;5096473;28;20271;-69
2021/08/28 04:55:37;;;;;;;38.55;23.83;;;;;;;23.35;77.49;99465.16;5098884;28;20039;-68
2021/08/28 04:58:03;;;;;;;41.70;23.27;;;;;;;23.39;77.67;99471.72;5098610;28;20081;-69
2021/08/28 05:00:28;;;;;;;37.05;24.35;;;;;;;23.53;76.39;99478.34;5098671;28;20388;-68
2021/08/28 05:02:53;;;;;;;43.88;25.15;;;;;;;23.53;76.76;99478.34;5097640;28;20073;-68
2021/08/28 05:05:19;;;;;;;40.08;24.52;;;;;;;23.57;76.87;99470.59;5077773;28;20040;-69
2021/08/28 05:07:44;;;;;;;41.42;24.35;;;;;;;23.47;77.60;99470.44;5098217;28;20036;-68
2021/08/28 05:10:10;;;;;;;41.05;23.67;;;;;;;23.67;76.53;99475.28;5097891;28;20085;-69
2021/08/28 05:12:36;;;;;;;36.63;23.85;;;;;;;23.79;75.49;99468.66;5097144;28;20196;-69
2021/08/28 05:15:02;;;;;;;39.13;22.33;;;;;;;24.10;73.83;99480.63;5098138;28;20052;-68
2021/08/28 05:17:28;;;;;;;37.63;22.15;;;;;;;24.10;72.83;99474.41;5097362;28;20146;-69
2021/08/28 05:19:54;;;;;;;33.88;19.58;;;;;;;24.24;72.18;99472.06;5097544;28;20074;-69
2021/08/28 05:22:19;;;;;;;42.45;21.58;;;;;;;24.42;72.52;99477.94;5097366;28;20032;-69
2021/08/28 05:24:45;;;;;;;32.22;20.85;;;;;;;24.31;72.76;99481.66;5096449;28;20326;-69
2021/08/28 05:27:10;;;;;;;32.55;20.08;;;;;;;24.36;72.57;99478.16;5096294;28;20064;-68
2021/08/28 05:29:36;;;;;;;31.20;19.85;;;;;;;24.49;72.22;99486.66;5096199;28;20043;-69
2021/08/28 05:32:01;;;;;;;30.50;20.35;;;;;;;24.67;71.55;99485.44;5096598;28;20034;-69
2021/08/28 05:34:27;;;;;;;31.30;19.17;;;;;;;24.73;70.57;99484.38;5098139;28;20040;-69
2021/08/28 05:36:52;;;;;;;27.13;17.20;;;;;;;25.00;69.45;99484.34;5096052;28;20043;-69
2021/08/28 05:39:18;;;;;;;39.05;21.15;;;;;;;25.26;66.47;99485.28;5097765;28;20183;-69
2021/08/28 05:41:43;;;;;;;53.03;28.77;;;;;;;25.69;65.87;99472.44;5096027;28;20356;-69
2021/08/28 05:44:08;;;;;;;42.03;22.33;;;;;;;25.89;64.50;99461.63;5097322;28;20028;-69
2021/08/28 05:46:34;;;;;;;32.97;18.33;;;;;;;26.46;62.96;99468.78;5096570;28;20452;-69
2021/08/28 05:48:59;;;;;;;46.65;25.15;;;;;;;26.71;61.05;99468.75;5094311;28;20085;-69
2021/08/28 05:51:25;;;;;;;29.40;19.95;;;;;;;26.57;59.91;99467.66;5095942;28;20020;-68
2021/08/28 05:53:50;;;;;;;32.17;18.52;;;;;;;26.60;60.49;99463.59;5099617;28;20096;-69
2021/08/28 05:56:15;;;;;;;39.55;19.88;;;;;;;26.89;59.04;99466.53;5079332;28;20020;-69
2021/08/28 05:58:41;;;;;;;28.70;19.40;;;;;;;26.85;58.38;99473.59;5097108;28;20044;-69
2021/08/28 06:01:06;;;;;;;24.85;16.25;;;;;;;27.34;57.19;99471.03;5096319;28;20027;-69
2021/08/28 06:03:32;;;;;;;26.80;15.77;;;;;;;27.49;55.98;99470.97;5097836;28;20042;-69
2021/08/28 06:05:57;;;;;;;22.20;15.15;;;;;;;27.45;55.05;99471.81;5097668;28;20031;-69
2021/08/28 06:08:23;;;;;;;24.17;14.45;;;;;;;27.65;54.90;99471.72;5080490;28;20024;-69
2021/08/28 06:10:48;;;;;;;21.67;14.52;;;;;;;27.96;54.17;99462.28;5097408;28;20031;-69
2021/08/28 06:13:14;;;;;;;22.40;14.75;;;;;;;28.07;53.00;99459.50;5095801;28;20445;-69
2021/08/28 06:15:39;;;;;;;24.33;15.15;;;;;;;28.01;53.23;99461.44;5097134;28;20338;-69
2021/08/28 06:18:05;;;;;;;19.13;14.43;;;;;;;28.23;51.92;99459.16;5096703;28;20042;-69
2021/08/28 06:20:30;;;;;;;22.83;15.15;;;;;;;28.18;52.09;99459.16;5095782;28;20035;-69
2021/08/28 06:22:56;;;;;;;25.48;17.17;;;;;;;28.21;52.39;99463.22;5098958;28;20032;-69
2021/08/28 06:25:21;;;;;;;22.02;14.75;;;;;;;28.42;51.64;99469.34;5099494;28;20023;-69
2021/08/28 06:27:47;;;;;;;25.75;15.10;;;;;;;28.48;50.89;99469.00;5100023;28;20050;-70
2021/08/28 06:30:13;;;;;;;21.60;15.50;;;;;;;28.48;51.02;99463.56;5091562;28;20121;-69
2021/08/28 06:32:38;;;;;;;24.80;15.27;;;;;;;28.75;50.11;99464.94;5093441;28;20039;-70
2021/08/28 06:35:04;;;;;;;27.42;14.98;;;;;;;28.79;50.52;99463.25;5089077;28;20044;-69
2021/08/28 06:37:29;;;;;;;26.58;16.92;;;;;;;29.09;49.82;99462.94;5103222;28;20064;-69
2021/08/28 06:39:55;;;;;;;22.55;14.23;;;;;;;29.32;48.28;99460.50;5102853;28;20047;-69
2021/08/28 06:42:20;;;;;;;19.45;13.75;;;;;;;29.65;47.52;99453.28;5082907;28;20040;-69
2021/08/28 06:44:45;;;;;;;24.48;15.30;;;;;;;29.67;47.52;99454.59;5082848;28;20038;-69
2021/08/28 06:47:11;;;;;;;24.05;15.20;;;;;;;29.95;46.48;99450.09;5086525;28;20140;-69
2021/08/28 06:49:36;;;;;;;20.75;15.70;;;;;;;29.94;47.34;99453.13;5103160;28;20073;-69
2021/08/28 06:52:02;;;;;;;22.25;14.52;;;;;;;30.03;46.40;99451.38;5103075;28;20032;-69
2021/08/28 06:54:28;;;;;;;22.65;14.77;;;;;;;30.36;45.98;99435.84;5103209;28;20073;-69
2021/08/28 06:56:53;;;;;;;21.90;14.57;;;;;;;30.72;45.68;99438.75;5102671;28;20099;-69
2021/08/28 06:59:18;;;;;;;28.55;14.00;;;;;;;30.88;45.01;99436.53;5070565;28;20024;-69
2021/08/28 07:01:44;;;;;;;24.70;14.88;;;;;;;31.06;44.56;99428.22;5091533;28;20051;-69
2021/08/28 07:04:10;;;;;;;20.20;14.00;;;;;;;31.34;43.79;99428.25;5085572;28;20043;-70
2021/08/28 07:06:35;;;;;;;22.60;14.98;;;;;;;31.45;43.27;99424.19;5102974;28;20027;-69
2021/08/28 07:09:02;;;;;;;21.08;15.88;;;;;;;31.52;42.88;99421.84;5101913;28;20032;-69
2021/08/28 07:11:27;;;;;;;18.40;15.32;;;;;;;31.82;42.41;99425.03;5101264;28;20104;-69
2021/08/28 07:13:53;;;;;;;21.33;14.77;;;;;;;31.80;42.64;99424.53;5096482;28;20329;-69
2021/08/28 07:16:18;;;;;;;23.38;15.05;;;;;;;31.97;41.79;99419.16;5094459;28;20248;-69
2021/08/28 07:18:43;;;;;;;20.52;14.52;;;;;;;31.71;42.10;99413.50;5094940;28;20356;-69
2021/08/28 07:21:10;;;;;;;21.17;13.50;;;;;;;31.91;42.78;99413.00;5094291;28;20347;-69
2021/08/28 07:23:35;;;;;;;22.52;15.30;;;;;;;32.25;41.63;99406.19;5076836;28;20055;-69
2021/08/28 07:26:01;;;;;;;25.00;14.95;;;;;;;32.46;40.83;99410.03;5095552;28;20337;-69
2021/08/28 07:28:26;;;;;;;23.48;15.00;;;;;;;32.11;41.12;99408.97;5094398;28;20044;-69
2021/08/28 07:30:52;;;;;;;20.23;14.43;;;;;;;32.53;40.33;99402.16;5096295;28;20363;-69
2021/08/28 07:33:17;;;;;;;28.80;14.77;;;;;;;32.56;41.38;99401.53;5095111;28;20063;-69
2021/08/28 07:35:43;;;;;;;26.88;14.50;;;;;;;32.86;40.66;99397.16;5098413;28;20051;-69
2021/08/28 07:38:08;;;;;;;27.27;16.98;;;;;;;33.37;39.31;99395.72;5096384;28;20063;-69
2021/08/28 07:40:33;;;;;;;25.40;15.77;;;;;;;33.69;38.50;99388.13;5093427;28;20020;-69
2021/08/28 07:43:00;;;;;;;25.25;15.10;;;;;;;33.68;38.66;99376.34;5079899;28;20058;-69
2021/08/28 07:45:26;;;;;;;20.08;13.68;;;;;;;33.08;39.50;99390.75;5095553;28;20218;-69
2021/08/28 07:47:52;;;;;;;21.98;12.95;;;;;;;32.88;39.82;99383.94;5094134;28;20039;-69
2021/08/28 07:50:19;;;;;;;21.55;13.02;;;;;;;33.11;39.93;99390.13;5095248;28;20046;-69
2021/08/28 07:52:44;;;;;;;20.40;13.55;;;;;;;32.94;39.17;99388.16;5091942;28;20425;-69
2021/08/28 07:55:12;;;;;;;19.13;13.25;;;;;;;32.60;39.65;99388.81;5094922;28;20031;-69
2021/08/28 07:57:39;;;;;;;21.25;13.68;;;;;;;32.28;41.36;99383.66;5095724;28;20036;-69
2021/08/28 08:00:06;;;;;;;20.58;13.23;;;;;;;32.93;39.96;99382.97;5093326;28;20332;-69
2021/08/28 08:02:32;;;;;;;22.27;13.88;;;;;;;33.07;39.98;99371.88;5092357;28;20089;-69
2021/08/28 08:04:57;;;;;;;19.00;13.75;;;;;;;32.93;39.24;99385.72;5096476;28;20036;-69
2021/08/28 08:07:23;;;;;;;19.88;13.05;;;;;;;32.26;40.01;99367.53;5093900;28;20305;-69
2021/08/28 08:09:48;;;;;;;16.42;12.93;;;;;;;31.30;42.89;99376.09;5095514;28;20839;-69
2021/08/28 08:12:14;;;;;;;19.83;13.68;;;;;;;31.07;43.56;99369.69;5093207;28;20032;-69
2021/08/28 08:14:40;;;;;;;16.95;12.68;;;;;;;30.96;43.49;99372.94;5095800;28;20095;-69
2021/08/28 08:17:05;;;;;;;21.83;13.40;;;;;;;30.79;45.24;99370.84;5092875;28;20059;-69
2021/08/28 08:19:31;;;;;;;19.42;12.85;;;;;;;30.39;44.83;99366.94;5097572;28;20035;-69
2021/08/28 08:21:56;;;;;;;19.13;13.75;;;;;;;30.48;45.51;99368.66;5099586;28;20269;-69
2021/08/28 08:24:22;;;;;;;20.63;13.30;;;;;;;30.31;47.80;99365.72;5098677;28;20026;-69
2021/08/28 08:26:47;;;;;;;19.40;13.40;;;;;;;30.36;47.03;99356.63;5098976;28;20051;-69
2021/08/28 08:29:13;;;;;;;18.65;13.50;;;;;;;30.39;47.46;99362.28;5098271;28;20028;-69
2021/08/28 08:31:38;;;;;;;19.13;13.57;;;;;;;30.40;46.98;99360.38;5098162;28;20026;-69
2021/08/28 08:34:04;;;;;;;19.23;12.88;;;;;;;30.38;46.39;99355.22;5099442;28;20161;-69
2021/08/28 08:36:29;;;;;;;19.17;13.30;;;;;;;30.44;46.46;99356.72;5097086;28;20020;-69
2021/08/28 08:38:54;;;;;;;21.85;12.68;;;;;;;30.36;46.80;99359.34;5100879;28;20028;-69
2021/08/28 08:41:23;;;;;;;20.10;12.25;;;;;;;30.25;47.52;99349.72;5090352;28;20036;-69
2021/08/28 08:43:49;;;;;;;19.55;13.82;;;;;;;30.14;47.92;99354.53;5083979;28;20036;-69
2021/08/28 08:46:15;;;;;;;21.48;13.45;;;;;;;29.92;48.16;99349.69;5091346;28;20039;-69
2021/08/28 08:48:41;;;;;;;20.65;14.65;;;;;;;30.23;46.91;99335.56;5097317;28;20034;-69
2021/08/28 08:51:08;;;;;;;19.58;14.38;;;;;;;31.02;46.57;99337.00;5098110;28;20261;-69
2021/08/28 08:53:35;;;;;;;23.27;14.68;;;;;;;31.01;46.07;99334.56;5100555;28;20036;-69
2021/08/28 08:56:00;;;;;;;22.48;14.70;;;;;;;30.43;47.16;99340.63;5096852;28;20373;-69
2021/08/28 08:58:26;;;;;;;23.60;14.68;;;;;;;30.26;48.76;99333.03;5098903;28;20039;-68
2021/08/28 09:00:51;;;;;;;24.58;14.70;;;;;;;30.44;47.73;99325.88;5097528;28;20049;-68
2021/08/28 09:03:17;;;;;;;22.13;14.80;;;;;;;30.71;47.10;99325.91;5098070;28;20028;-68
2021/08/28 09:05:42;;;;;;;23.02;15.45;;;;;;;30.36;48.01;99324.66;5099703;28;20313;-69
2021/08/28 09:08:08;;;;;;;19.63;14.77;;;;;;;30.60;47.83;99313.56;5094480;28;20271;-69
2021/08/28 09:10:34;;;;;;;25.92;15.10;;;;;;;30.58;47.99;99314.94;5098054;28;20028;-69
2021/08/28 09:13:19;;;;;;;22.05;15.38;;;;;;;30.34;48.49;99309.69;5099220;28;20152;-69
2021/08/28 09:15:47;;;;;;;19.90;14.70;;;;;;;30.28;49.34;99305.44;5096388;28;20052;-69
2021/08/28 09:18:12;;;;;;;24.55;15.70;;;;;;;30.41;48.08;99312.81;5083854;28;20314;-69
2021/08/28 09:20:38;;;;;;;20.27;14.68;;;;;;;30.26;47.61;99307.66;5083473;28;20403;-69
2021/08/28 09:23:13;;;;;;;19.02;14.60;;;;;;;30.57;47.72;99299.66;5080328;28;20051;-69
2021/08/28 09:25:41;;;;;;;22.65;14.70;;;;;;;30.26;49.60;99303.00;5096589;28;20047;-69
2021/08/28 09:28:09;;;;;;;20.38;15.80;;;;;;;29.87;49.50;99296.00;5096386;28;20087;-69
2021/08/28 09:30:43;;;;;;;23.83;15.63;;;;;;;29.68;49.98;99291.72;5093855;28;20020;-69
2021/08/28 09:33:14;;;;;;;22.50;16.40;;;;;;;29.84;49.87;99296.59;5095700;28;20331;-69
2021/08/28 09:35:47;;;;;;;21.48;16.20;;;;;;;29.86;50.27;99286.19;5098597;28;20048;-69
2021/08/28 09:38:16;;;;;;;26.23;16.20;;;;;;;29.95;49.47;99277.31;5095454;28;20465;-69
2021/08/28 09:40:44;;;;;;;21.08;15.20;;;;;;;29.97;49.17;99281.34;5096698;28;20461;-69
2021/08/28 09:43:18;;;;;;;19.52;14.63;;;;;;;29.92;49.96;99270.53;5098995;28;20031;-69
2021/08/28 09:45:46;;;;;;;24.00;15.20;;;;;;;29.66;50.28;99263.91;5098081;28;20039;-69
2021/08/28 09:48:13;;;;;;;21.20;15.07;;;;;;;29.96;50.33;99273.47;5096517;28;20032;-69
2021/08/28 09:50:41;;;;;;;20.10;14.35;;;;;;;29.69;49.12;99266.84;5097707;28;20016;-69
2021/08/28 09:53:12;;;;;;;24.95;15.80;;;;;;;29.92;49.90;99256.06;5097705;28;20028;-69
2021/08/28 09:55:41;;;;;;;22.00;14.45;;;;;;;30.05;49.23;99266.25;5089133;28;20032;-69
2021/08/28 09:58:09;;;;;;;19.63;14.60;;;;;;;29.79;49.68;99249.50;5095351;28;20036;-69
2021/08/28 10:00:41;;;;;;;25.30;14.00;;;;;;;29.75;48.86;99252.00;5097982;28;20428;-69
2021/08/28 10:03:06;;;;;;;21.02;14.90;;;;;;;29.81;50.21;99250.81;5097831;28;20058;-69
2021/08/28 10:05:34;;;;;;;23.38;14.38;;;;;;;29.76;48.95;99239.97;5094967;28;20302;-69
2021/08/28 10:08:02;;;;;;;20.08;15.55;;;;;;;29.89;49.46;99254.75;5096680;28;20052;-68
2021/08/28 10:10:30;;;;;;;21.52;14.65;;;;;;;29.90;50.92;99241.94;5097252;28;20028;-69
2021/08/28 10:12:57;;;;;;;22.52;15.35;;;;;;;29.77;50.51;99246.25;5079849;28;20397;-69
2021/08/28 10:15:23;;;;;;;22.15;15.18;;;;;;;30.04;48.90;99237.31;5097284;28;20043;-69
2021/08/28 10:17:49;;;;;;;19.33;15.00;;;;;;;29.64;50.33;99236.94;5097485;28;20445;-69
2021/08/28 10:20:17;;;;;;;23.85;15.43;;;;;;;29.70;49.96;99241.19;5097706;28;20085;-69
2021/08/28 10:22:43;;;;;;;17.60;14.68;;;;;;;29.80;50.81;99235.53;5097316;28;20293;-69
2021/08/28 10:25:12;;;;;;;25.38;15.18;;;;;;;29.97;49.44;99226.75;5095239;28;20414;-69
2021/08/28 10:27:39;;;;;;;19.90;15.45;;;;;;;30.08;49.39;99230.13;5094141;28;20055;-69
2021/08/28 10:30:10;;;;;;;21.05;14.27;;;;;;;30.13;48.51;99219.94;5095581;28;20290;-69
2021/08/28 10:32:36;;;;;;;20.90;14.50;;;;;;;30.41;49.37;99223.47;5095183;28;20349;-69
2021/08/28 10:35:03;;;;;;;23.08;14.85;;;;;;;30.45;49.03;99219.03;5095502;28;20073;-69
2021/08/28 10:37:28;;;;;;;23.40;15.27;;;;;;;30.33;48.15;99205.06;5097073;28;20028;-69
2021/08/28 10:39:54;;;;;;;21.98;14.45;;;;;;;30.40;48.64;99210.13;5096268;28;20062;-69
2021/08/28 10:42:21;;;;;;;19.98;15.35;;;;;;;30.52;48.36;99199.50;5076207;28;20040;-69
2021/08/28 10:44:51;;;;;;;20.63;13.75;;;;;;;30.49;47.85;99211.03;5094629;28;20051;-69
2021/08/28 10:47:22;;;;;;;26.63;13.40;;;;;;;30.42;46.72;99194.25;5088734;28;20060;-69
2021/08/28 10:49:50;;;;;;;20.02;13.38;;;;;;;30.49;47.64;99184.50;5081490;28;20302;-69
2021/08/28 10:52:22;;;;;;;21.88;13.95;;;;;;;30.20;47.78;99189.50;5088448;28;20410;-68
2021/08/28 10:54:59;;;;;;;18.15;13.27;;;;;;;30.28;48.35;99186.06;5097201;28;20028;-69
2021/08/28 10:57:28;;;;;;;18.35;13.35;;;;;;;30.55;47.43;99185.22;5096106;28;20052;-69
2021/08/28 11:00:10;;;;;;;21.65;12.90;;;;;;;30.53;47.02;99175.72;5094093;28;20437;-69
2021/08/28 11:02:47;;;;;;;23.67;11.68;;;;;;;30.61;46.50;99175.81;5093045;28;20052;-69
2021/08/28 11:05:32;;;;;;;18.75;12.05;;;;;;;30.48;46.65;99176.63;5093376;28;20028;-69
2021/08/28 11:08:18;;;;;;;19.00;12.20;;;;;;;30.64;46.65;99164.28;5096295;28;20438;-69
2021/08/28 11:11:11;;;;;;;18.40;11.52;;;;;;;30.66;45.93;99153.03;5096470;28;20048;-69
2021/08/28 11:14:00;;;;;;;22.25;12.10;;;;;;;30.73;45.84;99158.88;5086171;28;20350;-69
2021/08/28 11:16:55;;;;;;;17.08;12.05;;;;;;;30.79;46.13;99152.19;5092569;28;20028;-69
2021/08/28 11:19:23;;;;;;;15.55;12.02;;;;;;;30.80;45.09;99154.59;5071281;28;20051;-69